sensor_id;sensor_type;location;lat;lon;timestamp;P1;durP1;ratioP1;P2;durP2;ratioP2
19414;SDS011;9843;48.882;12.592;2023-04-02T00:06:31;2.40;;;2.30;;
19414;SDS011;9843;48.882;12.592;2023-04-02T00:09:15;2.50;;;2.30;;
19414;SDS011;9843;48.882;12.592;2023-04-02T00:11:44;2.50;;;2.30;;
19414;SDS011;9843;48.882;12.592;2023-04-02T00:14:14;2.70;;;2.50;;
19414;SDS011;9843;48.882;12.592;2023-04-02T00:16:41;2.67;;;2.47;;
19414;SDS011;9843;48.882;12.592;2023-04-02T00:19:12;2.33;;;2.13;;
19414;SDS011;9843;48.882;12.592;2023-04-02T00:21:41;3.63;;;2.50;;
19414;SDS011;9843;48.882;12.592;2023-04-02T00:24:14;3.63;;;3.43;;
19414;SDS011;9843;48.882;12.592;2023-04-02T00:26:42;2.87;;;2.67;;
19414;SDS011;9843;48.882;12.592;2023-04-02T00:29:10;2.70;;;2.50;;
19414;SDS011;9843;48.882;12.592;2023-04-02T00:31:40;4.07;;;2.40;;
19414;SDS011;9843;48.882;12.592;2023-04-02T00:34:08;2.43;;;2.23;;
19414;SDS011;9843;48.882;12.592;2023-04-02T00:36:35;1.90;;;1.80;;
19414;SDS011;9843;48.882;12.592;2023-04-02T00:39:03;2.80;;;2.60;;
19414;SDS011;9843;48.882;12.592;2023-04-02T00:41:34;2.20;;;1.80;;
19414;SDS011;9843;48.882;12.592;2023-04-02T00:44:03;3.43;;;2.93;;
19414;SDS011;9843;48.882;12.592;2023-04-02T00:46:31;9.17;;;2.80;;
19414;SDS011;9843;48.882;12.592;2023-04-02T00:49:00;2.20;;;2.10;;
19414;SDS011;9843;48.882;12.592;2023-04-02T00:51:28;2.07;;;1.97;;
19414;SDS011;9843;48.882;12.592;2023-04-02T00:53:57;2.50;;;2.30;;
19414;SDS011;9843;48.882;12.592;2023-04-02T00:56:27;3.40;;;2.63;;
19414;SDS011;9843;48.882;12.592;2023-04-02T00:58:58;5.00;;;2.00;;
19414;SDS011;9843;48.882;12.592;2023-04-02T01:01:26;2.37;;;2.27;;
19414;SDS011;9843;48.882;12.592;2023-04-02T01:03:55;2.20;;;2.10;;
19414;SDS011;9843;48.882;12.592;2023-04-02T01:06:23;2.10;;;2.00;;
19414;SDS011;9843;48.882;12.592;2023-04-02T01:09:00;3.67;;;2.43;;
19414;SDS011;9843;48.882;12.592;2023-04-02T01:11:31;2.80;;;2.60;;
19414;SDS011;9843;48.882;12.592;2023-04-02T01:14:08;2.40;;;2.30;;
19414;SDS011;9843;48.882;12.592;2023-04-02T01:16:39;2.30;;;2.20;;
19414;SDS011;9843;48.882;12.592;2023-04-02T01:19:14;2.60;;;2.40;;
19414;SDS011;9843;48.882;12.592;2023-04-02T01:21:51;4.10;;;2.87;;
19414;SDS011;9843;48.882;12.592;2023-04-02T01:24:20;2.33;;;2.23;;
19414;SDS011;9843;48.882;12.592;2023-04-02T01:26:51;4.20;;;2.53;;
19414;SDS011;9843;48.882;12.592;2023-04-02T01:29:22;2.40;;;2.30;;
19414;SDS011;9843;48.882;12.592;2023-04-02T01:31:50;2.80;;;2.50;;
19414;SDS011;9843;48.882;12.592;2023-04-02T01:34:19;2.37;;;2.17;;
19414;SDS011;9843;48.882;12.592;2023-04-02T01:36:50;2.70;;;2.50;;
19414;SDS011;9843;48.882;12.592;2023-04-02T01:39:24;2.40;;;2.30;;
19414;SDS011;9843;48.882;12.592;2023-04-02T01:41:54;6.20;;;2.90;;
19414;SDS011;9843;48.882;12.592;2023-04-02T01:44:26;2.77;;;2.60;;
19414;SDS011;9843;48.882;12.592;2023-04-02T01:46:55;2.57;;;2.47;;
19414;SDS011;9843;48.882;12.592;2023-04-02T01:49:24;3.07;;;2.33;;
19414;SDS011;9843;48.882;12.592;2023-04-02T01:51:52;2.93;;;2.73;;
19414;SDS011;9843;48.882;12.592;2023-04-02T01:54:20;3.00;;;2.53;;
19414;SDS011;9843;48.882;12.592;2023-04-02T01:56:48;3.47;;;3.17;;
19414;SDS011;9843;48.882;12.592;2023-04-02T01:59:18;2.20;;;2.10;;
19414;SDS011;9843;48.882;12.592;2023-04-02T02:01:49;3.50;;;2.57;;
19414;SDS011;9843;48.882;12.592;2023-04-02T02:04:18;2.63;;;2.50;;
19414;SDS011;9843;48.882;12.592;2023-04-02T02:06:45;2.70;;;2.50;;
19414;SDS011;9843;48.882;12.592;2023-04-02T02:09:14;2.90;;;2.10;;
19414;SDS011;9843;48.882;12.592;2023-04-02T02:11:43;2.80;;;2.60;;
19414;SDS011;9843;48.882;12.592;2023-04-02T02:14:12;2.40;;;2.30;;
19414;SDS011;9843;48.882;12.592;2023-04-02T02:16:40;2.90;;;2.70;;
19414;SDS011;9843;48.882;12.592;2023-04-02T02:19:14;2.60;;;2.40;;
19414;SDS011;9843;48.882;12.592;2023-04-02T02:21:45;3.03;;;2.83;;
19414;SDS011;9843;48.882;12.592;2023-04-02T02:24:13;2.93;;;2.60;;
19414;SDS011;9843;48.882;12.592;2023-04-02T02:26:42;6.67;;;2.53;;
19414;SDS011;9843;48.882;12.592;2023-04-02T02:29:13;3.43;;;2.70;;
19414;SDS011;9843;48.882;12.592;2023-04-02T02:31:41;2.43;;;2.23;;
19414;SDS011;9843;48.882;12.592;2023-04-02T02:34:11;2.63;;;2.43;;
19414;SDS011;9843;48.882;12.592;2023-04-02T02:36:42;3.53;;;2.60;;
19414;SDS011;9843;48.882;12.592;2023-04-02T02:39:14;3.80;;;2.53;;
19414;SDS011;9843;48.882;12.592;2023-04-02T02:41:46;4.67;;;2.53;;
19414;SDS011;9843;48.882;12.592;2023-04-02T02:44:14;3.77;;;2.77;;
19414;SDS011;9843;48.882;12.592;2023-04-02T02:46:45;2.67;;;2.50;;
19414;SDS011;9843;48.882;12.592;2023-04-02T02:49:15;3.73;;;2.70;;
19414;SDS011;9843;48.882;12.592;2023-04-02T02:51:44;2.33;;;2.20;;
19414;SDS011;9843;48.882;12.592;2023-04-02T02:54:13;2.30;;;2.20;;
19414;SDS011;9843;48.882;12.592;2023-04-02T02:56:42;2.30;;;2.20;;
19414;SDS011;9843;48.882;12.592;2023-04-02T02:59:11;2.47;;;2.30;;
19414;SDS011;9843;48.882;12.592;2023-04-02T03:01:41;2.97;;;2.73;;
19414;SDS011;9843;48.882;12.592;2023-04-02T03:04:09;2.67;;;2.47;;
19414;SDS011;9843;48.882;12.592;2023-04-02T03:06:37;2.00;;;1.90;;
19414;SDS011;9843;48.882;12.592;2023-04-02T03:09:08;2.90;;;2.20;;
19414;SDS011;9843;48.882;12.592;2023-04-02T03:11:39;3.60;;;2.53;;
19414;SDS011;9843;48.882;12.592;2023-04-02T03:14:10;2.50;;;2.40;;
19414;SDS011;9843;48.882;12.592;2023-04-02T03:16:42;2.73;;;2.53;;
19414;SDS011;9843;48.882;12.592;2023-04-02T03:19:15;3.40;;;2.30;;
19414;SDS011;9843;48.882;12.592;2023-04-02T03:21:48;4.47;;;2.33;;
19414;SDS011;9843;48.882;12.592;2023-04-02T03:24:18;7.87;;;2.20;;
19414;SDS011;9843;48.882;12.592;2023-04-02T03:26:47;3.10;;;2.10;;
19414;SDS011;9843;48.882;12.592;2023-04-02T03:29:15;3.13;;;2.93;;
19414;SDS011;9843;48.882;12.592;2023-04-02T03:31:43;8.53;;;2.93;;
19414;SDS011;9843;48.882;12.592;2023-04-02T03:34:15;2.50;;;2.37;;
19414;SDS011;9843;48.882;12.592;2023-04-02T03:36:47;3.10;;;2.80;;
19414;SDS011;9843;48.882;12.592;2023-04-02T03:39:17;3.53;;;2.47;;
19414;SDS011;9843;48.882;12.592;2023-04-02T03:41:46;2.47;;;2.37;;
19414;SDS011;9843;48.882;12.592;2023-04-02T03:44:18;5.27;;;2.60;;
19414;SDS011;9843;48.882;12.592;2023-04-02T03:46:47;3.67;;;2.40;;
19414;SDS011;9843;48.882;12.592;2023-04-02T03:49:23;2.20;;;2.10;;
19414;SDS011;9843;48.882;12.592;2023-04-02T03:51:53;3.23;;;2.43;;
19414;SDS011;9843;48.882;12.592;2023-04-02T03:54:21;2.30;;;2.20;;
19414;SDS011;9843;48.882;12.592;2023-04-02T03:56:48;2.30;;;2.20;;
19414;SDS011;9843;48.882;12.592;2023-04-02T03:59:19;2.40;;;2.30;;
19414;SDS011;9843;48.882;12.592;2023-04-02T04:01:51;2.40;;;2.30;;
19414;SDS011;9843;48.882;12.592;2023-04-02T04:04:19;2.23;;;2.13;;
19414;SDS011;9843;48.882;12.592;2023-04-02T04:06:48;3.27;;;2.43;;
19414;SDS011;9843;48.882;12.592;2023-04-02T04:09:18;2.80;;;2.60;;
19414;SDS011;9843;48.882;12.592;2023-04-02T04:11:50;2.57;;;2.37;;
19414;SDS011;9843;48.882;12.592;2023-04-02T04:14:18;3.20;;;2.93;;
19414;SDS011;9843;48.882;12.592;2023-04-02T04:16:47;2.30;;;2.20;;
19414;SDS011;9843;48.882;12.592;2023-04-02T04:19:19;3.07;;;2.87;;
19414;SDS011;9843;48.882;12.592;2023-04-02T04:21:47;2.47;;;2.30;;
19414;SDS011;9843;48.882;12.592;2023-04-02T04:24:16;2.40;;;2.30;;
19414;SDS011;9843;48.882;12.592;2023-04-02T04:26:49;2.57;;;2.47;;
19414;SDS011;9843;48.882;12.592;2023-04-02T04:29:24;4.80;;;2.60;;
19414;SDS011;9843;48.882;12.592;2023-04-02T04:31:53;2.87;;;2.67;;
19414;SDS011;9843;48.882;12.592;2023-04-02T04:34:23;2.80;;;2.70;;
19414;SDS011;9843;48.882;12.592;2023-04-02T04:36:51;2.70;;;2.47;;
19414;SDS011;9843;48.882;12.592;2023-04-02T04:39:20;2.70;;;2.50;;
19414;SDS011;9843;48.882;12.592;2023-04-02T04:41:50;2.60;;;2.40;;
19414;SDS011;9843;48.882;12.592;2023-04-02T04:44:19;3.13;;;2.93;;
19414;SDS011;9843;48.882;12.592;2023-04-02T04:46:48;3.03;;;2.73;;
19414;SDS011;9843;48.882;12.592;2023-04-02T04:49:21;3.90;;;3.60;;
19414;SDS011;9843;48.882;12.592;2023-04-02T04:51:51;12.13;;;7.87;;
19414;SDS011;9843;48.882;12.592;2023-04-02T04:54:23;10.83;;;7.43;;
19414;SDS011;9843;48.882;12.592;2023-04-02T04:56:54;9.60;;;7.60;;
19414;SDS011;9843;48.882;12.592;2023-04-02T04:59:22;8.10;;;6.60;;
19414;SDS011;9843;48.882;12.592;2023-04-02T05:04:20;4.60;;;3.70;;
19414;SDS011;9843;48.882;12.592;2023-04-02T05:06:48;4.77;;;3.60;;
19414;SDS011;9843;48.882;12.592;2023-04-02T05:09:19;3.77;;;3.47;;
19414;SDS011;9843;48.882;12.592;2023-04-02T05:11:49;5.80;;;3.37;;
19414;SDS011;9843;48.882;12.592;2023-04-02T05:14:21;4.17;;;3.87;;
19414;SDS011;9843;48.882;12.592;2023-04-02T05:16:52;5.60;;;5.10;;
19414;SDS011;9843;48.882;12.592;2023-04-02T05:19:21;3.67;;;3.30;;
19414;SDS011;9843;48.882;12.592;2023-04-02T05:21:50;3.57;;;3.37;;
19414;SDS011;9843;48.882;12.592;2023-04-02T05:24:36;6.40;;;5.03;;
19414;SDS011;9843;48.882;12.592;2023-04-02T05:27:08;4.07;;;3.77;;
19414;SDS011;9843;48.882;12.592;2023-04-02T05:29:41;5.03;;;4.63;;
19414;SDS011;9843;48.882;12.592;2023-04-02T05:32:11;3.80;;;3.53;;
19414;SDS011;9843;48.882;12.592;2023-04-02T05:34:39;3.77;;;3.43;;
19414;SDS011;9843;48.882;12.592;2023-04-02T05:37:11;4.47;;;3.90;;
19414;SDS011;9843;48.882;12.592;2023-04-02T05:39:39;5.73;;;4.77;;
19414;SDS011;9843;48.882;12.592;2023-04-02T05:42:10;7.53;;;4.73;;
19414;SDS011;9843;48.882;12.592;2023-04-02T05:44:41;5.07;;;4.63;;
19414;SDS011;9843;48.882;12.592;2023-04-02T05:47:12;6.83;;;3.87;;
19414;SDS011;9843;48.882;12.592;2023-04-02T05:49:40;5.20;;;4.50;;
19414;SDS011;9843;48.882;12.592;2023-04-02T05:52:10;6.00;;;4.17;;
19414;SDS011;9843;48.882;12.592;2023-04-02T05:54:41;5.73;;;5.13;;
19414;SDS011;9843;48.882;12.592;2023-04-02T05:57:10;5.93;;;3.87;;
19414;SDS011;9843;48.882;12.592;2023-04-02T05:59:38;5.97;;;4.77;;
19414;SDS011;9843;48.882;12.592;2023-04-02T06:02:09;5.20;;;3.77;;
19414;SDS011;9843;48.882;12.592;2023-04-02T06:04:45;4.27;;;3.97;;
19414;SDS011;9843;48.882;12.592;2023-04-02T06:07:14;4.80;;;4.30;;
19414;SDS011;9843;48.882;12.592;2023-04-02T06:09:42;4.43;;;4.03;;
19414;SDS011;9843;48.882;12.592;2023-04-02T06:12:14;5.10;;;4.10;;
19414;SDS011;9843;48.882;12.592;2023-04-02T06:14:41;4.97;;;4.53;;
19414;SDS011;9843;48.882;12.592;2023-04-02T06:17:10;5.87;;;4.73;;
19414;SDS011;9843;48.882;12.592;2023-04-02T06:19:37;6.97;;;5.47;;
19414;SDS011;9843;48.882;12.592;2023-04-02T06:22:13;7.13;;;4.77;;
19414;SDS011;9843;48.882;12.592;2023-04-02T06:24:42;5.70;;;4.97;;
19414;SDS011;9843;48.882;12.592;2023-04-02T06:27:10;5.60;;;4.67;;
19414;SDS011;9843;48.882;12.592;2023-04-02T06:29:39;4.67;;;4.30;;
19414;SDS011;9843;48.882;12.592;2023-04-02T06:32:08;7.53;;;4.97;;
19414;SDS011;9843;48.882;12.592;2023-04-02T06:34:36;6.47;;;5.87;;
19414;SDS011;9843;48.882;12.592;2023-04-02T06:37:10;4.53;;;4.13;;
19414;SDS011;9843;48.882;12.592;2023-04-02T06:39:39;7.33;;;4.53;;
19414;SDS011;9843;48.882;12.592;2023-04-02T06:42:09;5.10;;;4.57;;
19414;SDS011;9843;48.882;12.592;2023-04-02T06:44:37;4.27;;;3.83;;
19414;SDS011;9843;48.882;12.592;2023-04-02T06:47:05;5.13;;;4.63;;
19414;SDS011;9843;48.882;12.592;2023-04-02T06:49:37;8.13;;;6.57;;
19414;SDS011;9843;48.882;12.592;2023-04-02T06:52:09;5.20;;;4.40;;
19414;SDS011;9843;48.882;12.592;2023-04-02T06:54:40;4.67;;;4.27;;
19414;SDS011;9843;48.882;12.592;2023-04-02T06:57:07;5.23;;;3.97;;
19414;SDS011;9843;48.882;12.592;2023-04-02T06:59:35;5.53;;;5.03;;
19414;SDS011;9843;48.882;12.592;2023-04-02T07:02:03;4.17;;;3.87;;
19414;SDS011;9843;48.882;12.592;2023-04-02T07:04:31;5.07;;;4.47;;
19414;SDS011;9843;48.882;12.592;2023-04-02T07:06:58;6.73;;;5.20;;
19414;SDS011;9843;48.882;12.592;2023-04-02T07:09:25;5.33;;;4.93;;
19414;SDS011;9843;48.882;12.592;2023-04-02T07:11:54;4.80;;;4.17;;
19414;SDS011;9843;48.882;12.592;2023-04-02T07:14:21;5.60;;;5.07;;
19414;SDS011;9843;48.882;12.592;2023-04-02T07:16:48;5.80;;;5.23;;
19414;SDS011;9843;48.882;12.592;2023-04-02T07:19:15;4.87;;;4.43;;
19414;SDS011;9843;48.882;12.592;2023-04-02T07:21:44;7.00;;;5.97;;
19414;SDS011;9843;48.882;12.592;2023-04-02T07:24:11;7.03;;;4.67;;
19414;SDS011;9843;48.882;12.592;2023-04-02T07:26:38;4.90;;;4.10;;
19414;SDS011;9843;48.882;12.592;2023-04-02T07:29:07;4.20;;;3.80;;
19414;SDS011;9843;48.882;12.592;2023-04-02T07:31:36;6.00;;;4.27;;
19414;SDS011;9843;48.882;12.592;2023-04-02T07:34:05;4.90;;;4.00;;
19414;SDS011;9843;48.882;12.592;2023-04-02T07:36:32;5.70;;;4.33;;
19414;SDS011;9843;48.882;12.592;2023-04-02T07:39:00;4.30;;;4.00;;
19414;SDS011;9843;48.882;12.592;2023-04-02T07:41:27;7.83;;;5.13;;
19414;SDS011;9843;48.882;12.592;2023-04-02T07:43:54;6.37;;;4.80;;
19414;SDS011;9843;48.882;12.592;2023-04-02T07:46:22;5.00;;;4.60;;
19414;SDS011;9843;48.882;12.592;2023-04-02T07:48:49;5.97;;;3.57;;
19414;SDS011;9843;48.882;12.592;2023-04-02T07:51:18;4.07;;;3.70;;
19414;SDS011;9843;48.882;12.592;2023-04-02T07:53:45;4.00;;;3.60;;
19414;SDS011;9843;48.882;12.592;2023-04-02T07:56:14;4.37;;;3.97;;
19414;SDS011;9843;48.882;12.592;2023-04-02T07:58:42;6.47;;;4.70;;
19414;SDS011;9843;48.882;12.592;2023-04-02T08:01:13;4.00;;;3.70;;
19414;SDS011;9843;48.882;12.592;2023-04-02T08:03:42;4.27;;;3.87;;
19414;SDS011;9843;48.882;12.592;2023-04-02T08:06:09;4.43;;;4.03;;
19414;SDS011;9843;48.882;12.592;2023-04-02T08:08:36;8.20;;;4.27;;
19414;SDS011;9843;48.882;12.592;2023-04-02T08:11:04;8.13;;;5.90;;
19414;SDS011;9843;48.882;12.592;2023-04-02T08:13:31;5.70;;;4.50;;
19414;SDS011;9843;48.882;12.592;2023-04-02T08:15:58;4.87;;;4.47;;
19414;SDS011;9843;48.882;12.592;2023-04-02T08:18:25;5.07;;;4.67;;
19414;SDS011;9843;48.882;12.592;2023-04-02T08:20:54;4.50;;;4.20;;
19414;SDS011;9843;48.882;12.592;2023-04-02T08:23:21;7.27;;;3.73;;
19414;SDS011;9843;48.882;12.592;2023-04-02T08:25:48;4.30;;;3.57;;
19414;SDS011;9843;48.882;12.592;2023-04-02T08:28:15;4.77;;;4.23;;
19414;SDS011;9843;48.882;12.592;2023-04-02T08:30:42;3.43;;;3.23;;
19414;SDS011;9843;48.882;12.592;2023-04-02T08:33:09;4.60;;;4.20;;
19414;SDS011;9843;48.882;12.592;2023-04-02T08:35:36;4.67;;;4.27;;
19414;SDS011;9843;48.882;12.592;2023-04-02T08:38:05;4.10;;;3.77;;
19414;SDS011;9843;48.882;12.592;2023-04-02T08:40:33;5.63;;;3.70;;
19414;SDS011;9843;48.882;12.592;2023-04-02T08:43:15;5.33;;;4.43;;
19414;SDS011;9843;48.882;12.592;2023-04-02T08:45:46;8.57;;;4.27;;
19414;SDS011;9843;48.882;12.592;2023-04-02T08:48:16;6.07;;;4.17;;
19414;SDS011;9843;48.882;12.592;2023-04-02T08:50:43;6.80;;;4.10;;
19414;SDS011;9843;48.882;12.592;2023-04-02T08:53:12;3.87;;;3.57;;
19414;SDS011;9843;48.882;12.592;2023-04-02T08:55:44;7.47;;;4.43;;
19414;SDS011;9843;48.882;12.592;2023-04-02T08:58:19;3.90;;;3.60;;
19414;SDS011;9843;48.882;12.592;2023-04-02T09:00:50;4.20;;;3.80;;
19414;SDS011;9843;48.882;12.592;2023-04-02T09:03:20;8.47;;;4.00;;
19414;SDS011;9843;48.882;12.592;2023-04-02T09:05:48;4.80;;;3.00;;
19414;SDS011;9843;48.882;12.592;2023-04-02T09:08:18;3.87;;;3.57;;
19414;SDS011;9843;48.882;12.592;2023-04-02T09:10:47;5.73;;;3.23;;
19414;SDS011;9843;48.882;12.592;2023-04-02T09:13:17;3.67;;;3.30;;
19414;SDS011;9843;48.882;12.592;2023-04-02T09:15:47;3.90;;;3.33;;
19414;SDS011;9843;48.882;12.592;2023-04-02T09:18:16;4.93;;;3.23;;
19414;SDS011;9843;48.882;12.592;2023-04-02T09:20:43;6.23;;;3.13;;
19414;SDS011;9843;48.882;12.592;2023-04-02T09:23:12;3.17;;;2.87;;
19414;SDS011;9843;48.882;12.592;2023-04-02T09:25:45;3.00;;;2.80;;
19414;SDS011;9843;48.882;12.592;2023-04-02T09:28:12;3.07;;;2.87;;
19414;SDS011;9843;48.882;12.592;2023-04-02T09:30:42;5.03;;;3.10;;
19414;SDS011;9843;48.882;12.592;2023-04-02T09:33:13;3.23;;;3.03;;
19414;SDS011;9843;48.882;12.592;2023-04-02T09:35:52;4.20;;;3.07;;
19414;SDS011;9843;48.882;12.592;2023-04-02T09:38:20;3.27;;;3.00;;
19414;SDS011;9843;48.882;12.592;2023-04-02T09:40:49;4.77;;;2.97;;
19414;SDS011;9843;48.882;12.592;2023-04-02T09:43:17;3.70;;;3.50;;
19414;SDS011;9843;48.882;12.592;2023-04-02T09:45:53;3.70;;;3.37;;
19414;SDS011;9843;48.882;12.592;2023-04-02T09:48:22;3.80;;;3.50;;
19414;SDS011;9843;48.882;12.592;2023-04-02T09:50:52;5.13;;;4.00;;
19414;SDS011;9843;48.882;12.592;2023-04-02T09:53:29;4.30;;;3.87;;
19414;SDS011;9843;48.882;12.592;2023-04-02T09:56:11;6.93;;;3.20;;
19414;SDS011;9843;48.882;12.592;2023-04-02T09:58:38;4.67;;;3.47;;
19414;SDS011;9843;48.882;12.592;2023-04-02T10:01:12;3.10;;;2.90;;
19414;SDS011;9843;48.882;12.592;2023-04-02T10:03:43;4.03;;;3.27;;
19414;SDS011;9843;48.882;12.592;2023-04-02T10:06:11;18.80;;;4.27;;
19414;SDS011;9843;48.882;12.592;2023-04-02T10:08:39;3.70;;;3.40;;
19414;SDS011;9843;48.882;12.592;2023-04-02T10:11:06;5.17;;;3.80;;
19414;SDS011;9843;48.882;12.592;2023-04-02T10:13:37;5.30;;;2.90;;
19414;SDS011;9843;48.882;12.592;2023-04-02T10:16:06;4.50;;;3.30;;
19414;SDS011;9843;48.882;12.592;2023-04-02T10:18:37;2.83;;;2.63;;
19414;SDS011;9843;48.882;12.592;2023-04-02T10:21:06;4.30;;;3.53;;
19414;SDS011;9843;48.882;12.592;2023-04-02T10:23:33;7.90;;;3.43;;
19414;SDS011;9843;48.882;12.592;2023-04-02T10:26:04;3.07;;;2.87;;
19414;SDS011;9843;48.882;12.592;2023-04-02T10:28:38;4.60;;;3.13;;
19414;SDS011;9843;48.882;12.592;2023-04-02T10:31:08;5.93;;;2.70;;
19414;SDS011;9843;48.882;12.592;2023-04-02T10:33:41;4.23;;;2.47;;
19414;SDS011;9843;48.882;12.592;2023-04-02T10:36:10;6.20;;;3.63;;
19414;SDS011;9843;48.882;12.592;2023-04-02T10:38:45;2.50;;;1.80;;
19414;SDS011;9843;48.882;12.592;2023-04-02T10:41:28;2.40;;;2.20;;
19414;SDS011;9843;48.882;12.592;2023-04-02T10:44:04;2.10;;;2.00;;
19414;SDS011;9843;48.882;12.592;2023-04-02T10:46:35;2.23;;;2.10;;
19414;SDS011;9843;48.882;12.592;2023-04-02T10:49:06;3.93;;;2.67;;
19414;SDS011;9843;48.882;12.592;2023-04-02T10:51:37;2.93;;;2.77;;
19414;SDS011;9843;48.882;12.592;2023-04-02T10:54:11;2.27;;;2.07;;
19414;SDS011;9843;48.882;12.592;2023-04-02T10:56:43;4.53;;;2.93;;
19414;SDS011;9843;48.882;12.592;2023-04-02T10:59:13;3.80;;;3.50;;
19414;SDS011;9843;48.882;12.592;2023-04-02T11:01:42;2.77;;;2.57;;
19414;SDS011;9843;48.882;12.592;2023-04-02T11:04:13;5.40;;;3.30;;
19414;SDS011;9843;48.882;12.592;2023-04-02T11:06:42;3.87;;;2.33;;
19414;SDS011;9843;48.882;12.592;2023-04-02T11:09:13;3.73;;;2.80;;
19414;SDS011;9843;48.882;12.592;2023-04-02T11:11:42;2.40;;;2.30;;
19414;SDS011;9843;48.882;12.592;2023-04-02T11:14:12;2.40;;;2.20;;
19414;SDS011;9843;48.882;12.592;2023-04-02T11:16:40;2.37;;;2.27;;
19414;SDS011;9843;48.882;12.592;2023-04-02T11:19:08;2.47;;;2.27;;
19414;SDS011;9843;48.882;12.592;2023-04-02T11:21:36;2.30;;;2.20;;
19414;SDS011;9843;48.882;12.592;2023-04-02T11:24:04;2.37;;;2.27;;
19414;SDS011;9843;48.882;12.592;2023-04-02T11:26:35;2.13;;;1.93;;
19414;SDS011;9843;48.882;12.592;2023-04-02T11:29:13;1.87;;;1.77;;
19414;SDS011;9843;48.882;12.592;2023-04-02T11:31:40;1.90;;;1.80;;
19414;SDS011;9843;48.882;12.592;2023-04-02T11:34:11;1.70;;;1.60;;
19414;SDS011;9843;48.882;12.592;2023-04-02T11:36:57;2.10;;;2.00;;
19414;SDS011;9843;48.882;12.592;2023-04-02T11:42:20;1.80;;;1.70;;
19414;SDS011;9843;48.882;12.592;2023-04-02T11:44:50;3.87;;;3.30;;
19414;SDS011;9843;48.882;12.592;2023-04-02T11:47:18;2.67;;;2.30;;
19414;SDS011;9843;48.882;12.592;2023-04-02T11:49:59;2.70;;;2.50;;
19414;SDS011;9843;48.882;12.592;2023-04-02T11:52:27;1.93;;;1.83;;
19414;SDS011;9843;48.882;12.592;2023-04-02T11:54:55;1.90;;;1.80;;
19414;SDS011;9843;48.882;12.592;2023-04-02T11:57:25;2.60;;;2.27;;
19414;SDS011;9843;48.882;12.592;2023-04-02T12:00:02;3.40;;;3.10;;
19414;SDS011;9843;48.882;12.592;2023-04-02T12:02:33;2.07;;;1.97;;
19414;SDS011;9843;48.882;12.592;2023-04-02T12:05:09;2.40;;;2.20;;
19414;SDS011;9843;48.882;12.592;2023-04-02T12:07:51;3.40;;;2.40;;
19414;SDS011;9843;48.882;12.592;2023-04-02T12:10:22;5.43;;;4.60;;
19414;SDS011;9843;48.882;12.592;2023-04-02T12:12:50;5.27;;;3.77;;
19414;SDS011;9843;48.882;12.592;2023-04-02T12:15:36;3.07;;;2.87;;
19414;SDS011;9843;48.882;12.592;2023-04-02T12:18:10;4.00;;;2.33;;
19414;SDS011;9843;48.882;12.592;2023-04-02T12:20:38;3.70;;;3.40;;
19414;SDS011;9843;48.882;12.592;2023-04-02T12:23:11;3.17;;;2.87;;
19414;SDS011;9843;48.882;12.592;2023-04-02T12:25:41;4.63;;;3.53;;
19414;SDS011;9843;48.882;12.592;2023-04-02T12:28:13;3.30;;;3.00;;
19414;SDS011;9843;48.882;12.592;2023-04-02T12:30:45;1.53;;;1.53;;
19414;SDS011;9843;48.882;12.592;2023-04-02T12:33:13;4.60;;;3.93;;
19414;SDS011;9843;48.882;12.592;2023-04-02T12:35:40;3.57;;;3.27;;
19414;SDS011;9843;48.882;12.592;2023-04-02T12:38:16;1.90;;;1.80;;
19414;SDS011;9843;48.882;12.592;2023-04-02T12:40:49;2.60;;;2.40;;
19414;SDS011;9843;48.882;12.592;2023-04-02T12:43:21;3.13;;;2.57;;
19414;SDS011;9843;48.882;12.592;2023-04-02T12:45:51;1.73;;;1.63;;
19414;SDS011;9843;48.882;12.592;2023-04-02T12:48:18;1.60;;;1.50;;
19414;SDS011;9843;48.882;12.592;2023-04-02T12:50:46;5.57;;;2.40;;
19414;SDS011;9843;48.882;12.592;2023-04-02T12:53:23;2.17;;;2.03;;
19414;SDS011;9843;48.882;12.592;2023-04-02T12:55:51;1.80;;;1.70;;
19414;SDS011;9843;48.882;12.592;2023-04-02T12:58:34;4.87;;;3.30;;
19414;SDS011;9843;48.882;12.592;2023-04-02T13:01:09;5.63;;;2.37;;
19414;SDS011;9843;48.882;12.592;2023-04-02T13:03:37;2.53;;;2.23;;
19414;SDS011;9843;48.882;12.592;2023-04-02T13:06:10;1.90;;;1.80;;
19414;SDS011;9843;48.882;12.592;2023-04-02T13:08:43;2.27;;;2.17;;
19414;SDS011;9843;48.882;12.592;2023-04-02T13:11:10;5.90;;;2.27;;
19414;SDS011;9843;48.882;12.592;2023-04-02T13:13:38;2.60;;;2.40;;
19414;SDS011;9843;48.882;12.592;2023-04-02T13:16:06;2.90;;;2.70;;
19414;SDS011;9843;48.882;12.592;2023-04-02T13:18:49;3.07;;;2.87;;
19414;SDS011;9843;48.882;12.592;2023-04-02T13:21:23;3.30;;;3.00;;
19414;SDS011;9843;48.882;12.592;2023-04-02T13:23:51;3.53;;;3.20;;
19414;SDS011;9843;48.882;12.592;2023-04-02T13:26:19;3.60;;;3.30;;
19414;SDS011;9843;48.882;12.592;2023-04-02T13:28:55;4.33;;;4.07;;
19414;SDS011;9843;48.882;12.592;2023-04-02T13:31:22;5.27;;;4.73;;
19414;SDS011;9843;48.882;12.592;2023-04-02T13:33:50;2.90;;;2.80;;
19414;SDS011;9843;48.882;12.592;2023-04-02T13:36:17;4.43;;;3.47;;
19414;SDS011;9843;48.882;12.592;2023-04-02T13:38:44;4.33;;;3.93;;
19414;SDS011;9843;48.882;12.592;2023-04-02T13:41:16;3.43;;;3.23;;
19414;SDS011;9843;48.882;12.592;2023-04-02T13:43:44;3.77;;;3.30;;
19414;SDS011;9843;48.882;12.592;2023-04-02T13:46:12;2.47;;;2.37;;
19414;SDS011;9843;48.882;12.592;2023-04-02T13:48:42;4.23;;;3.90;;
19414;SDS011;9843;48.882;12.592;2023-04-02T13:51:11;2.83;;;2.63;;
19414;SDS011;9843;48.882;12.592;2023-04-02T13:53:40;3.10;;;2.90;;
19414;SDS011;9843;48.882;12.592;2023-04-02T13:56:07;2.77;;;2.57;;
19414;SDS011;9843;48.882;12.592;2023-04-02T13:58:34;3.30;;;3.10;;
19414;SDS011;9843;48.882;12.592;2023-04-02T14:01:01;2.40;;;2.30;;
19414;SDS011;9843;48.882;12.592;2023-04-02T14:03:28;3.67;;;3.43;;
19414;SDS011;9843;48.882;12.592;2023-04-02T14:05:57;2.80;;;2.60;;
19414;SDS011;9843;48.882;12.592;2023-04-02T14:08:30;3.03;;;2.83;;
19414;SDS011;9843;48.882;12.592;2023-04-02T14:11:03;3.70;;;3.40;;
19414;SDS011;9843;48.882;12.592;2023-04-02T14:13:38;3.77;;;2.77;;
19414;SDS011;9843;48.882;12.592;2023-04-02T14:16:12;4.30;;;3.90;;
19414;SDS011;9843;48.882;12.592;2023-04-02T14:18:44;4.00;;;3.70;;
19414;SDS011;9843;48.882;12.592;2023-04-02T14:21:19;3.60;;;3.40;;
19414;SDS011;9843;48.882;12.592;2023-04-02T14:23:55;3.37;;;3.13;;
19414;SDS011;9843;48.882;12.592;2023-04-02T14:26:25;2.50;;;2.37;;
19414;SDS011;9843;48.882;12.592;2023-04-02T14:28:57;3.57;;;3.27;;
19414;SDS011;9843;48.882;12.592;2023-04-02T14:31:27;3.40;;;3.10;;
19414;SDS011;9843;48.882;12.592;2023-04-02T14:34:00;3.30;;;3.10;;
19414;SDS011;9843;48.882;12.592;2023-04-02T14:36:29;3.27;;;3.03;;
19414;SDS011;9843;48.882;12.592;2023-04-02T14:39:04;3.60;;;3.30;;
19414;SDS011;9843;48.882;12.592;2023-04-02T14:41:35;3.43;;;3.17;;
19414;SDS011;9843;48.882;12.592;2023-04-02T14:44:05;5.40;;;3.87;;
19414;SDS011;9843;48.882;12.592;2023-04-02T14:46:34;3.13;;;2.93;;
19414;SDS011;9843;48.882;12.592;2023-04-02T14:49:02;2.70;;;2.60;;
19414;SDS011;9843;48.882;12.592;2023-04-02T14:51:32;3.10;;;2.90;;
19414;SDS011;9843;48.882;12.592;2023-04-02T14:54:04;3.30;;;3.10;;
19414;SDS011;9843;48.882;12.592;2023-04-02T14:56:35;4.00;;;3.13;;
19414;SDS011;9843;48.882;12.592;2023-04-02T14:59:06;3.63;;;3.33;;
19414;SDS011;9843;48.882;12.592;2023-04-02T15:01:42;3.63;;;3.43;;
19414;SDS011;9843;48.882;12.592;2023-04-02T15:04:11;3.50;;;3.30;;
19414;SDS011;9843;48.882;12.592;2023-04-02T15:06:40;4.60;;;4.20;;
19414;SDS011;9843;48.882;12.592;2023-04-02T15:09:11;3.90;;;3.70;;
19414;SDS011;9843;48.882;12.592;2023-04-02T15:11:41;4.03;;;3.80;;
19414;SDS011;9843;48.882;12.592;2023-04-02T15:14:10;3.97;;;3.77;;
19414;SDS011;9843;48.882;12.592;2023-04-02T15:16:38;4.77;;;4.47;;